createdAt,value
2018-11-10T00:00:41.881Z,11.27
2018-11-10T00:01:41.868Z,11.25
2018-11-10T00:02:42.142Z,11.28
2018-11-10T00:03:42.100Z,11.24
2018-11-10T00:04:42.073Z,11.31
2018-11-10T00:05:42.061Z,11.25
2018-11-10T00:06:41.510Z,11.24
2018-11-10T00:07:41.781Z,11.27
2018-11-10T00:08:41.742Z,11.29
2018-11-10T00:09:41.722Z,11.31
2018-11-10T00:10:41.721Z,11.29
2018-11-10T00:11:41.433Z,11.29
2018-11-10T00:12:41.938Z,11.31
2018-11-10T00:13:41.662Z,11.29
2018-11-10T00:14:41.645Z,11.29
2018-11-10T00:15:41.889Z,11.29
2018-11-10T00:16:41.399Z,11.31
2018-11-10T00:17:41.868Z,11.31
2018-11-10T00:18:41.837Z,11.36
2018-11-10T00:19:41.819Z,11.24
2018-11-10T00:20:41.827Z,11.25
2018-11-10T00:21:41.521Z,11.25
2018-11-10T00:22:41.765Z,11.17
2018-11-10T00:23:41.491Z,11.21
2018-11-10T00:24:41.488Z,11.2
2018-11-10T00:25:41.460Z,11.32
2018-11-10T00:26:41.386Z,11.28
2018-11-10T00:27:41.694Z,11.25
2018-11-10T00:28:41.151Z,11.2
2018-11-10T00:29:41.653Z,11.19
2018-11-10T00:30:41.639Z,11.21
2018-11-10T00:31:41.361Z,11.34
2018-11-10T00:32:41.375Z,11.21
2018-11-10T00:33:41.337Z,11.29
2018-11-10T00:34:41.829Z,11.29
2018-11-10T00:35:41.300Z,11.28
2018-11-10T00:36:41.011Z,11.31
2018-11-10T00:37:41.260Z,11.24
2018-11-10T00:38:41.514Z,11.25
2018-11-10T00:39:41.500Z,11.35
2018-11-10T00:40:41.486Z,11.36
2018-11-10T00:41:41.453Z,11.36
2018-11-10T00:42:41.450Z,11.43
2018-11-10T00:43:41.430Z,11.44
2018-11-10T00:44:41.412Z,11.5
2018-11-10T00:45:40.865Z,11.49
2018-11-10T00:46:41.110Z,11.52
2018-11-10T00:47:41.361Z,11.53
2018-11-10T00:48:41.349Z,11.53
2018-11-10T00:49:40.797Z,11.56
2018-11-10T00:50:41.310Z,11.61
2018-11-10T00:51:41.292Z,11.68
2018-11-10T00:52:41.280Z,11.67
2018-11-10T00:53:41.033Z,11.71
2018-11-10T00:54:40.995Z,11.71
2018-11-10T00:55:40.960Z,11.65
2018-11-10T00:56:40.948Z,11.86
2018-11-10T00:57:41.186Z,11.82
2018-11-10T00:58:40.923Z,11.82
2018-11-10T00:59:40.631Z,11.93
2018-11-10T01:00:40.891Z,11.96
2018-11-10T01:01:40.871Z,11.96
2018-11-10T01:02:40.892Z,11.93
2018-11-10T01:03:40.822Z,11.87
2018-11-10T01:04:40.814Z,12.01
2018-11-10T01:05:40.876Z,11.94
2018-11-10T01:06:40.785Z,11.9
2018-11-10T01:07:40.773Z,12.08
2018-11-10T01:08:40.748Z,12.11
2018-11-10T01:09:40.741Z,12.08
2018-11-10T01:10:40.452Z,11.99
2018-11-10T01:11:40.971Z,12.11
2018-11-10T01:12:40.945Z,12.06
2018-11-10T01:13:40.985Z,12.21
2018-11-10T01:14:40.918Z,12.21
2018-11-10T01:15:40.907Z,12.23
2018-11-10T01:16:40.618Z,12.21
2018-11-10T01:17:40.336Z,12.27
2018-11-10T01:18:40.592Z,12.21
2018-11-10T01:19:40.576Z,12.24
2018-11-10T01:20:40.560Z,12.24
2018-11-10T01:21:40.540Z,12.31
2018-11-10T01:22:40.529Z,12.33
2018-11-10T01:23:40.505Z,12.38
2018-11-10T01:24:40.492Z,12.38
2018-11-10T01:25:40.210Z,12.31
2018-11-10T01:26:40.728Z,12.33
2018-11-10T01:27:40.518Z,12.34
2018-11-10T01:28:40.685Z,12.34
2018-11-10T01:29:40.675Z,12.38
2018-11-10T01:30:40.129Z,12.2
2018-11-10T01:31:40.641Z,12.34
2018-11-10T01:32:40.658Z,12.38
2018-11-10T01:33:40.341Z,12.3
2018-11-10T01:34:40.602Z,12.34
2018-11-10T01:35:40.593Z,12.38
2018-11-10T01:36:40.558Z,12.41
2018-11-10T01:37:40.298Z,12.33
2018-11-10T01:38:40.257Z,12.31
2018-11-10T01:39:40.247Z,12.31
2018-11-10T01:40:40.227Z,12.39
2018-11-10T01:41:40.498Z,12.38
2018-11-10T01:42:40.208Z,12.41
2018-11-10T01:43:40.447Z,12.41
2018-11-10T01:44:40.164Z,12.37
2018-11-10T01:45:40.159Z,12.49
2018-11-10T01:46:40.165Z,12.41
2018-11-10T01:47:40.129Z,12.49
2018-11-10T01:48:40.372Z,12.48
2018-11-10T01:49:40.348Z,12.51
2018-11-10T01:50:39.812Z,12.48
2018-11-10T01:51:40.318Z,12.48
2018-11-10T01:52:40.044Z,12.49
2018-11-10T01:53:40.022Z,12.46
2018-11-10T01:54:40.269Z,12.52
2018-11-10T01:55:40.248Z,12.44
2018-11-10T01:56:40.249Z,12.46
2018-11-10T01:57:40.223Z,12.42
2018-11-10T01:58:39.944Z,12.45
2018-11-10T01:59:39.941Z,12.48
2018-11-10T02:00:40.177Z,12.46
2018-11-10T02:01:39.893Z,12.46
2018-11-10T02:02:39.885Z,12.48
2018-11-10T02:03:39.885Z,12.62
2018-11-10T02:04:40.133Z,12.56
2018-11-10T02:05:40.101Z,12.56
2018-11-10T02:06:39.604Z,12.52
2018-11-10T02:07:39.793Z,12.44
2018-11-10T02:08:40.049Z,12.44
2018-11-10T02:09:40.037Z,12.56
2018-11-10T02:10:39.749Z,12.46
2018-11-10T02:11:40.010Z,12.49
2018-11-10T02:12:39.471Z,12.49
2018-11-10T02:13:39.975Z,12.52
2018-11-10T02:14:39.959Z,12.45
2018-11-10T02:15:39.965Z,12.42
2018-11-10T02:16:39.661Z,12.51
2018-11-10T02:17:39.911Z,12.49
2018-11-10T02:18:39.891Z,12.46
2018-11-10T02:19:39.877Z,12.46
2018-11-10T02:20:39.856Z,12.46
2018-11-10T02:21:39.573Z,12.37
2018-11-10T02:22:39.590Z,12.49
2018-11-10T02:23:39.282Z,12.39
2018-11-10T02:24:39.269Z,12.44
2018-11-10T02:25:39.775Z,12.41
2018-11-10T02:26:39.696Z,12.38
2018-11-10T02:27:39.744Z,12.38
2018-11-10T02:28:39.733Z,12.38
2018-11-10T02:29:39.718Z,12.34
2018-11-10T02:30:39.499Z,12.45
2018-11-10T02:31:39.426Z,12.34
2018-11-10T02:32:39.147Z,12.42
2018-11-10T02:33:39.395Z,12.37
2018-11-10T02:34:39.645Z,12.33
2018-11-10T02:35:39.627Z,12.41
2018-11-10T02:36:39.076Z,12.34
2018-11-10T02:37:39.325Z,12.38
2018-11-10T02:38:39.822Z,12.37
2018-11-10T02:39:39.568Z,12.41
2018-11-10T02:40:39.542Z,12.42
2018-11-10T02:41:39.528Z,12.34
2018-11-10T02:42:39.245Z,12.34
2018-11-10T02:43:38.964Z,12.33
2018-11-10T02:44:39.477Z,12.38
2018-11-10T02:45:39.205Z,12.33
2018-11-10T02:46:38.919Z,12.39
2018-11-10T02:47:39.178Z,12.48
2018-11-10T02:48:38.892Z,12.46
2018-11-10T02:49:39.130Z,12.39
2018-11-10T02:50:39.118Z,12.46
2018-11-10T02:51:39.368Z,12.39
2018-11-10T02:52:39.117Z,12.46
2018-11-10T02:53:39.073Z,12.44
2018-11-10T02:54:39.329Z,12.45
2018-11-10T02:55:39.302Z,12.34
2018-11-10T02:56:39.294Z,12.37
2018-11-10T02:57:38.745Z,12.42
2018-11-10T02:58:38.999Z,12.42
2018-11-10T02:59:39.247Z,12.41
2018-11-10T03:00:39.234Z,12.39
2018-11-10T03:01:38.945Z,12.57
2018-11-10T03:02:38.928Z,12.49
2018-11-10T03:03:38.919Z,12.49
2018-11-10T03:04:38.632Z,12.48
2018-11-10T03:05:38.888Z,12.51
2018-11-10T03:06:39.131Z,12.67
2018-11-10T03:07:38.851Z,12.57
2018-11-10T03:08:39.100Z,12.7
2018-11-10T03:09:39.079Z,12.71
2018-11-10T03:10:39.286Z,12.75
2018-11-10T03:11:38.794Z,12.78
2018-11-10T03:12:39.058Z,12.77
2018-11-10T03:13:38.771Z,12.79
2018-11-10T03:14:38.742Z,12.81
2018-11-10T03:15:38.998Z,12.85
2018-11-10T03:16:38.710Z,12.82
2018-11-10T03:17:38.695Z,12.75
2018-11-10T03:18:38.416Z,12.78
2018-11-10T03:19:38.662Z,12.79
2018-11-10T03:20:38.651Z,12.87
2018-11-10T03:21:38.645Z,12.84
2018-11-10T03:22:38.353Z,12.85
2018-11-10T03:23:38.861Z,12.92
2018-11-10T03:24:38.601Z,12.92
2018-11-10T03:25:38.577Z,12.87
2018-11-10T03:26:38.550Z,12.93
2018-11-10T03:27:38.278Z,12.99
2018-11-10T03:28:38.527Z,13
2018-11-10T03:29:38.780Z,12.99
2018-11-10T03:30:38.509Z,12.99
2018-11-10T03:31:38.745Z,12.93
2018-11-10T03:32:38.745Z,12.96
2018-11-10T03:33:38.717Z,12.99
2018-11-10T03:34:38.695Z,12.97
2018-11-10T03:35:38.425Z,12.97
2018-11-10T03:36:38.137Z,12.99
2018-11-10T03:37:38.653Z,12.95
2018-11-10T03:38:38.111Z,13
2018-11-10T03:39:38.350Z,12.97
2018-11-10T03:40:38.079Z,12.99
2018-11-10T03:41:38.323Z,12.96
2018-11-10T03:42:38.315Z,12.97
2018-11-10T03:43:38.298Z,13
2018-11-10T03:44:38.279Z,13
2018-11-10T03:45:38.530Z,12.97
2018-11-10T03:46:37.998Z,13
2018-11-10T03:47:38.493Z,13.04
2018-11-10T03:48:38.279Z,12.96
2018-11-10T03:49:38.205Z,13.07
2018-11-10T03:50:37.915Z,13.04
2018-11-10T03:51:37.903Z,13.04
2018-11-10T03:52:38.156Z,13.03
2018-11-10T03:53:37.873Z,13.12
2018-11-10T03:54:38.121Z,13.06
2018-11-10T03:55:38.114Z,13.12
2018-11-10T03:56:38.094Z,13.12
2018-11-10T03:57:38.072Z,13.2
2018-11-10T03:58:38.066Z,13.2
2018-11-10T03:59:38.045Z,13.18
2018-11-10T04:00:38.295Z,13.29
2018-11-10T04:01:38.011Z,13.3
2018-11-10T04:02:38.266Z,13.25
2018-11-10T04:03:37.989Z,13.24
2018-11-10T04:04:37.703Z,13.27
2018-11-10T04:05:37.696Z,13.36
2018-11-10T04:06:37.963Z,13.25
2018-11-10T04:07:37.932Z,13.46
2018-11-10T04:08:38.167Z,13.44
2018-11-10T04:09:38.166Z,13.36
2018-11-10T04:10:38.139Z,13.41
2018-11-10T04:11:38.126Z,13.44
2018-11-10T04:12:38.111Z,13.43
2018-11-10T04:13:38.134Z,13.47
2018-11-10T04:14:38.082Z,13.49
2018-11-10T04:15:38.090Z,13.47
2018-11-10T04:16:37.820Z,13.55
2018-11-10T04:17:37.781Z,13.51
2018-11-10T04:18:37.494Z,13.59
2018-11-10T04:19:37.769Z,13.67
2018-11-10T04:20:37.467Z,13.62
2018-11-10T04:21:38.020Z,13.74
2018-11-10T04:22:37.703Z,13.83
2018-11-10T04:23:37.943Z,13.83
2018-11-10T04:24:37.667Z,13.8
2018-11-10T04:25:37.920Z,13.8
2018-11-10T04:26:37.840Z,13.87
2018-11-10T04:27:37.617Z,13.91
2018-11-10T04:28:37.608Z,13.92
2018-11-10T04:29:37.879Z,13.91
2018-11-10T04:30:37.310Z,13.91
2018-11-10T04:31:37.820Z,13.96
2018-11-10T04:32:37.810Z,14.02
2018-11-10T04:33:37.797Z,14.04
2018-11-10T04:34:37.525Z,14.06
2018-11-10T04:35:37.759Z,14.07
2018-11-10T04:36:37.481Z,14.13
2018-11-10T04:37:37.472Z,14.12
2018-11-10T04:38:37.712Z,14.09
2018-11-10T04:39:37.437Z,14.1
2018-11-10T04:40:37.424Z,14.12
2018-11-10T04:41:37.671Z,14.09
2018-11-10T04:42:37.671Z,14.06
2018-11-10T04:43:37.691Z,13.95
2018-11-10T04:44:37.364Z,13.95
2018-11-10T04:45:37.085Z,14.04
2018-11-10T04:46:37.603Z,14.07
2018-11-10T04:47:37.421Z,14.07
2018-11-10T04:48:37.040Z,14.02
2018-11-10T04:49:37.362Z,14.06
2018-11-10T04:50:37.274Z,14.12
2018-11-10T04:51:37.534Z,14.21
2018-11-10T04:52:37.253Z,14.24
2018-11-10T04:53:37.539Z,14.21
2018-11-10T04:54:37.211Z,14.31
2018-11-10T04:55:36.932Z,14.27
2018-11-10T04:56:37.197Z,14.32
2018-11-10T04:57:37.171Z,14.37
2018-11-10T04:58:37.491Z,14.32
2018-11-10T04:59:36.894Z,14.32
2018-11-10T05:00:37.125Z,14.32
2018-11-10T05:01:37.341Z,14.28
2018-11-10T05:02:37.090Z,14.25
2018-11-10T05:03:37.073Z,14.28
2018-11-10T05:04:37.326Z,14.19
2018-11-10T05:05:37.308Z,14.25
2018-11-10T05:06:37.034Z,14.28
2018-11-10T05:07:37.015Z,14.13
2018-11-10T05:08:36.734Z,14.13
2018-11-10T05:09:37.258Z,14.19
2018-11-10T05:10:36.972Z,14.07
2018-11-10T05:11:36.953Z,14.07
2018-11-10T05:12:36.937Z,14.12
2018-11-10T05:13:36.937Z,14.06
2018-11-10T05:14:37.216Z,14.04
2018-11-10T05:15:37.176Z,13.98
2018-11-10T05:16:37.146Z,13.92
2018-11-10T05:17:36.865Z,13.95
2018-11-10T05:18:36.602Z,13.99
2018-11-10T05:19:37.105Z,13.98
2018-11-10T05:20:36.822Z,13.95
2018-11-10T05:21:36.543Z,13.91
2018-11-10T05:22:37.053Z,13.88
2018-11-10T05:23:36.793Z,13.88
2018-11-10T05:24:37.031Z,13.81
2018-11-10T05:25:37.019Z,13.94
2018-11-10T05:26:36.735Z,13.92
2018-11-10T05:27:36.454Z,13.88
2018-11-10T05:28:36.643Z,13.81
2018-11-10T05:29:36.691Z,13.83
2018-11-10T05:30:36.941Z,13.8
2018-11-10T05:31:36.663Z,13.81
2018-11-10T05:32:37.127Z,13.8
2018-11-10T05:33:36.366Z,13.89
2018-11-10T05:34:36.902Z,13.8
2018-11-10T05:35:36.919Z,13.81
2018-11-10T05:36:36.592Z,13.81
2018-11-10T05:37:36.835Z,13.79
2018-11-10T05:38:36.825Z,13.83
2018-11-10T05:39:36.960Z,13.79
2018-11-10T05:40:36.804Z,13.89
2018-11-10T05:41:36.244Z,13.94
2018-11-10T05:42:36.506Z,13.81
2018-11-10T05:43:36.477Z,13.87
2018-11-10T05:44:36.733Z,13.89
2018-11-10T05:45:36.189Z,13.94
2018-11-10T05:46:36.700Z,13.95
2018-11-10T05:47:36.430Z,14.02
2018-11-10T05:48:36.408Z,14.06
2018-11-10T05:49:36.389Z,14.16
2018-11-10T05:50:36.647Z,14.29
2018-11-10T05:51:36.624Z,14.32
2018-11-10T05:52:36.609Z,14.39
2018-11-10T05:53:36.334Z,14.39
2018-11-10T05:54:36.052Z,14.42
2018-11-10T05:55:36.325Z,14.47
2018-11-10T05:56:36.574Z,14.47
2018-11-10T05:57:36.642Z,14.57
2018-11-10T05:58:36.529Z,14.53
2018-11-10T05:59:35.990Z,14.54
2018-11-10T06:00:36.253Z,14.72
2018-11-10T06:01:36.265Z,14.93
2018-11-10T06:02:36.223Z,15.15
2018-11-10T06:03:36.287Z,15.19
2018-11-10T06:05:36.150Z,15.21
2018-11-10T06:06:36.142Z,15.23
2018-11-10T06:07:36.124Z,15.13
2018-11-10T06:08:35.852Z,15.19
2018-11-10T06:09:36.253Z,15.12
2018-11-10T06:10:36.077Z,15.12
2018-11-10T06:11:35.862Z,15.17
2018-11-10T06:12:36.125Z,15.13
2018-11-10T06:13:36.416Z,15.12
2018-11-10T06:14:36.393Z,15.12
2018-11-10T06:15:36.011Z,15.19
2018-11-10T06:16:35.992Z,15.27
2018-11-10T06:17:35.979Z,15.35
2018-11-10T06:18:35.755Z,15.28
2018-11-10T06:19:35.950Z,15.45
2018-11-10T06:20:35.934Z,15.52
2018-11-10T06:21:35.918Z,15.49
2018-11-10T06:22:35.903Z,15.54
2018-11-10T06:23:36.204Z,15.48
2018-11-10T06:24:35.609Z,15.56
2018-11-10T06:25:35.861Z,15.56
2018-11-10T06:26:36.515Z,15.57
2018-11-10T06:27:35.561Z,15.45
2018-11-10T06:28:36.147Z,15.41
2018-11-10T06:29:35.818Z,15.39
2018-11-10T06:30:35.816Z,15.36
2018-11-10T06:31:35.769Z,15.38
2018-11-10T06:32:35.873Z,15.33
2018-11-10T06:33:35.477Z,15.31
2018-11-10T06:34:36.002Z,15.33
2018-11-10T06:35:35.985Z,15.33
2018-11-10T06:36:35.963Z,15.2
2018-11-10T06:37:35.685Z,15.27
2018-11-10T06:38:35.677Z,15.23
2018-11-10T06:39:35.655Z,15.09
2018-11-10T06:40:35.373Z,14.99
2018-11-10T06:41:36.251Z,14.98
2018-11-10T06:42:35.882Z,14.93
2018-11-10T06:43:35.592Z,14.83
2018-11-10T06:44:35.844Z,14.8
2018-11-10T06:45:35.831Z,14.71
2018-11-10T06:46:35.557Z,14.65
2018-11-10T06:47:35.542Z,14.54
2018-11-10T06:48:35.790Z,14.54
2018-11-10T06:49:35.774Z,14.46
2018-11-10T06:50:35.757Z,14.52
2018-11-10T06:51:35.480Z,14.42
2018-11-10T06:52:35.500Z,14.37
2018-11-10T06:53:35.463Z,14.28
2018-11-10T06:54:35.700Z,14.21
2018-11-10T06:55:35.414Z,14.24
2018-11-10T06:56:35.398Z,14.19
2018-11-10T06:57:35.650Z,14.12
2018-11-10T06:58:35.382Z,14.06
2018-11-10T06:59:35.624Z,14.12
2018-11-10T07:00:35.096Z,14.14
2018-11-10T07:01:35.065Z,14.2
2018-11-10T07:02:35.583Z,14.12
2018-11-10T07:03:35.161Z,14.1
2018-11-10T07:04:35.548Z,14.06
2018-11-10T07:05:35.532Z,14.02
2018-11-10T07:06:35.254Z,13.99
2018-11-10T07:07:35.276Z,13.99
2018-11-10T07:08:35.220Z,14.04
2018-11-10T07:09:34.996Z,14.04
2018-11-10T07:10:34.931Z,13.96
2018-11-10T07:11:34.910Z,14.02
2018-11-10T07:12:35.433Z,13.91
2018-11-10T07:13:35.415Z,13.98
2018-11-10T07:14:35.126Z,13.95
2018-11-10T07:15:35.374Z,13.95
2018-11-10T07:16:35.374Z,13.91
2018-11-10T07:17:35.220Z,13.88
2018-11-10T07:18:35.327Z,13.81
2018-11-10T07:19:35.055Z,13.77
2018-11-10T07:20:35.327Z,13.81
2018-11-10T07:21:35.024Z,13.81
2018-11-10T07:22:35.008Z,13.81
2018-11-10T07:23:35.258Z,13.83
2018-11-10T07:24:34.978Z,13.71
2018-11-10T07:25:34.695Z,13.81
2018-11-10T07:26:35.229Z,13.8
2018-11-10T07:27:35.190Z,13.81
2018-11-10T07:28:35.186Z,13.8
2018-11-10T07:29:34.634Z,13.69
2018-11-10T07:30:34.904Z,13.76
2018-11-10T07:31:35.127Z,13.84
2018-11-10T07:32:35.140Z,13.92
2018-11-10T07:33:34.840Z,13.96
2018-11-10T07:34:35.084Z,13.92
2018-11-10T07:35:34.804Z,13.88
2018-11-10T07:36:34.803Z,13.88
2018-11-10T07:37:34.863Z,13.88
2018-11-10T07:38:34.765Z,13.88
2018-11-10T07:39:34.737Z,13.88
2018-11-10T07:40:34.992Z,13.89
2018-11-10T07:41:34.443Z,13.98
2018-11-10T07:42:34.691Z,13.95
2018-11-10T07:43:34.677Z,13.98
2018-11-10T07:44:34.666Z,13.88
2018-11-10T07:45:34.954Z,13.77
2018-11-10T07:46:34.645Z,13.91
2018-11-10T07:47:34.353Z,13.84
2018-11-10T07:48:34.880Z,13.83
2018-11-10T07:49:34.796Z,13.73
2018-11-10T07:50:34.570Z,13.79
2018-11-10T07:51:34.549Z,13.73
2018-11-10T07:52:34.796Z,13.7
2018-11-10T07:53:34.513Z,13.8
2018-11-10T07:54:34.514Z,13.77
2018-11-10T07:55:34.687Z,13.8
2018-11-10T07:56:34.761Z,13.81
2018-11-10T07:57:34.456Z,13.87
2018-11-10T07:58:34.440Z,13.8
2018-11-10T07:59:34.435Z,13.8
2018-11-10T08:00:34.491Z,13.79
2018-11-10T08:01:34.141Z,13.79
2018-11-10T08:02:34.386Z,13.79
2018-11-10T08:03:34.644Z,13.83
2018-11-10T08:04:34.445Z,13.98
2018-11-10T08:05:34.603Z,13.95
2018-11-10T08:06:34.350Z,14.04
2018-11-10T08:07:34.316Z,14.04
2018-11-10T08:08:34.300Z,14.09
2018-11-10T08:09:34.530Z,14.07
2018-11-10T08:10:34.260Z,14.1
2018-11-10T08:11:34.246Z,14.16
2018-11-10T08:12:34.225Z,14.21
2018-11-10T08:13:34.198Z,14.27
2018-11-10T08:14:34.457Z,14.28
2018-11-10T08:15:34.481Z,14.35
2018-11-10T08:16:34.169Z,14.37
2018-11-10T08:17:34.429Z,14.42
2018-11-10T08:18:33.990Z,14.34
2018-11-10T08:19:34.388Z,14.35
2018-11-10T08:20:33.846Z,14.35
2018-11-10T08:21:34.344Z,14.37
2018-11-10T08:22:34.066Z,14.42
2018-11-10T08:23:34.078Z,14.52
2018-11-10T08:24:34.294Z,14.46
2018-11-10T08:25:34.028Z,14.46
2018-11-10T08:26:34.001Z,14.49
2018-11-10T08:27:34.512Z,14.46
2018-11-10T08:28:33.977Z,14.52
2018-11-10T08:29:34.222Z,14.46
2018-11-10T08:30:34.201Z,14.47
2018-11-10T08:31:34.196Z,14.46
2018-11-10T08:32:34.178Z,14.53
2018-11-10T08:33:33.938Z,14.46
2018-11-10T08:34:34.208Z,14.52
2018-11-10T08:35:33.984Z,14.57
2018-11-10T08:36:33.886Z,14.49
2018-11-10T08:37:33.637Z,14.6
2018-11-10T08:38:34.234Z,14.54
2018-11-10T08:39:33.995Z,14.67
2018-11-10T08:40:33.777Z,14.52
2018-11-10T08:41:33.799Z,14.54
2018-11-10T08:42:34.056Z,14.67
2018-11-10T08:43:34.026Z,14.52
2018-11-10T08:44:33.745Z,14.52
2018-11-10T08:45:33.719Z,14.52
2018-11-10T08:46:33.699Z,14.56
2018-11-10T08:47:33.944Z,14.54
2018-11-10T08:48:33.861Z,14.57
2018-11-10T08:49:33.643Z,14.56
2018-11-10T08:50:33.651Z,14.57
2018-11-10T08:51:33.918Z,14.6
2018-11-10T08:52:33.627Z,14.56
2018-11-10T08:53:33.586Z,14.56
2018-11-10T08:54:33.311Z,14.49
2018-11-10T08:55:33.551Z,14.54
2018-11-10T08:56:33.591Z,14.49
2018-11-10T08:57:33.640Z,14.6
2018-11-10T08:58:33.562Z,14.61
2018-11-10T08:59:33.804Z,14.61
2018-11-10T09:00:33.330Z,14.64
2018-11-10T09:01:33.742Z,14.61
2018-11-10T09:02:33.549Z,14.57
2018-11-10T09:03:33.217Z,14.68
2018-11-10T09:04:33.852Z,14.65
2018-11-10T09:05:33.448Z,14.68
2018-11-10T09:06:33.726Z,14.65
2018-11-10T09:07:33.672Z,14.71
2018-11-10T09:08:33.375Z,14.68
2018-11-10T09:09:33.624Z,14.67
2018-11-10T09:10:33.337Z,14.67
2018-11-10T09:11:33.578Z,14.75
2018-11-10T09:12:33.312Z,14.67
2018-11-10T09:13:33.549Z,14.74
2018-11-10T09:14:33.283Z,14.72
2018-11-10T09:15:33.268Z,14.68
2018-11-10T09:16:33.511Z,14.65
2018-11-10T09:17:33.280Z,14.69
2018-11-10T09:18:33.210Z,14.67
2018-11-10T09:19:33.455Z,14.68
2018-11-10T09:20:32.943Z,14.71
2018-11-10T09:21:33.846Z,14.65
2018-11-10T09:22:33.153Z,14.74
2018-11-10T09:23:33.398Z,14.72
2018-11-10T09:24:33.591Z,14.78
2018-11-10T09:25:33.392Z,14.74
2018-11-10T09:26:33.369Z,14.71
2018-11-10T09:27:33.088Z,14.69
2018-11-10T09:28:32.819Z,14.69
2018-11-10T09:29:33.368Z,14.78
2018-11-10T09:30:32.762Z,14.72
2018-11-10T09:31:33.357Z,14.75
2018-11-10T09:32:33.358Z,14.8
2018-11-10T09:33:33.244Z,14.72
2018-11-10T09:34:32.745Z,14.78
2018-11-10T09:35:33.004Z,14.78
2018-11-10T09:36:33.068Z,14.84
2018-11-10T09:37:32.917Z,14.74
2018-11-10T09:38:32.913Z,14.78
2018-11-10T09:39:33.164Z,14.75
2018-11-10T09:40:33.145Z,14.67
2018-11-10T09:41:32.866Z,14.69
2018-11-10T09:42:33.400Z,14.75
2018-11-10T09:43:32.582Z,14.75
2018-11-10T09:44:32.821Z,14.81
2018-11-10T09:45:32.806Z,14.8
2018-11-10T09:46:32.793Z,14.74
2018-11-10T09:47:33.046Z,14.75
2018-11-10T09:48:32.754Z,14.83
2018-11-10T09:49:33.029Z,14.83
2018-11-10T09:50:32.814Z,14.74
2018-11-10T09:51:32.504Z,14.72
2018-11-10T09:52:32.788Z,14.74
2018-11-10T09:53:32.680Z,14.78
2018-11-10T09:54:32.953Z,14.8
2018-11-10T09:55:32.392Z,14.69
2018-11-10T09:56:32.904Z,14.78
2018-11-10T09:57:32.887Z,14.68
2018-11-10T09:58:32.613Z,14.74
2018-11-10T09:59:32.592Z,14.74
2018-11-10T10:00:32.790Z,14.67
2018-11-10T10:01:33.631Z,14.74
2018-11-10T10:02:34.753Z,14.78
2018-11-10T10:03:32.541Z,14.72
2018-11-10T10:04:32.783Z,14.75
2018-11-10T10:05:32.767Z,14.68
2018-11-10T10:06:32.492Z,14.75
2018-11-10T10:07:32.480Z,14.74
2018-11-10T10:08:32.721Z,14.72
2018-11-10T10:09:32.739Z,14.72
2018-11-10T10:10:32.192Z,14.69
2018-11-10T10:11:32.472Z,14.75
2018-11-10T10:12:32.170Z,14.75
2018-11-10T10:13:32.406Z,14.74
2018-11-10T10:14:32.117Z,14.75
2018-11-10T10:15:32.362Z,14.75
2018-11-10T10:16:32.773Z,14.78
2018-11-10T10:17:32.335Z,14.91
2018-11-10T10:18:32.579Z,14.88
2018-11-10T10:19:32.562Z,14.84
2018-11-10T10:20:32.559Z,14.88
2018-11-10T10:21:32.584Z,14.86
2018-11-10T10:22:32.316Z,14.87
2018-11-10T10:23:32.240Z,14.88
2018-11-10T10:24:32.232Z,14.91
2018-11-10T10:25:32.479Z,14.99
2018-11-10T10:26:32.464Z,14.93
2018-11-10T10:27:32.653Z,14.83
2018-11-10T10:28:32.847Z,14.93
2018-11-10T10:29:32.163Z,14.93
2018-11-10T10:30:32.235Z,14.93
2018-11-10T10:31:32.144Z,14.93
2018-11-10T10:32:31.850Z,14.93
2018-11-10T10:33:32.380Z,14.95
2018-11-10T10:34:33.161Z,14.87
2018-11-10T10:35:32.951Z,14.95
2018-11-10T10:36:32.328Z,14.94
2018-11-10T10:37:32.305Z,14.95
2018-11-10T10:38:32.314Z,14.99
2018-11-10T10:39:32.019Z,14.95
2018-11-10T10:40:32.263Z,14.99
2018-11-10T10:41:32.259Z,15.01
2018-11-10T10:42:32.238Z,14.99
2018-11-10T10:43:31.958Z,14.93
2018-11-10T10:44:31.939Z,15.02
2018-11-10T10:45:31.922Z,14.98
2018-11-10T10:46:32.208Z,15.02
2018-11-10T10:47:31.898Z,15.05
2018-11-10T10:48:32.399Z,14.99
2018-11-10T10:49:31.876Z,14.95
2018-11-10T10:50:31.868Z,14.99
2018-11-10T10:51:32.094Z,15.06
2018-11-10T10:52:32.130Z,15.09
2018-11-10T10:53:31.810Z,15.09
2018-11-10T10:54:31.802Z,15.15
2018-11-10T10:55:32.054Z,15.21
2018-11-10T10:56:32.150Z,15.17
2018-11-10T10:57:32.020Z,15.26
2018-11-10T10:58:32.003Z,15.24
2018-11-10T10:59:31.462Z,15.26
2018-11-10T11:00:31.995Z,15.3
2018-11-10T11:01:31.956Z,15.28
2018-11-10T11:02:31.422Z,15.28
2018-11-10T11:03:31.933Z,15.28
2018-11-10T11:04:31.666Z,15.26
2018-11-10T11:05:31.382Z,15.28
2018-11-10T11:06:31.626Z,15.27
2018-11-10T11:07:31.872Z,15.27
2018-11-10T11:08:31.869Z,15.26
2018-11-10T11:09:32.157Z,15.24
2018-11-10T11:10:31.575Z,15.3
2018-11-10T11:11:31.299Z,15.28
2018-11-10T11:12:31.803Z,15.27
2018-11-10T11:13:31.528Z,15.31
2018-11-10T11:14:31.825Z,15.24
2018-11-10T11:15:33.133Z,15.26
2018-11-10T11:16:31.755Z,15.31
2018-11-10T11:17:31.476Z,15.26
2018-11-10T11:18:31.768Z,15.3
2018-11-10T11:19:31.478Z,15.27
2018-11-10T11:20:31.690Z,15.24
2018-11-10T11:21:31.152Z,15.15
2018-11-10T11:22:31.401Z,15.23
2018-11-10T11:23:31.393Z,15.17
2018-11-10T11:24:31.106Z,15.2
2018-11-10T11:25:31.363Z,15.2
2018-11-10T11:26:31.617Z,15.26
2018-11-10T11:27:31.331Z,15.21
2018-11-10T11:28:31.311Z,15.19
2018-11-10T11:29:32.066Z,15.19
2018-11-10T11:30:31.033Z,15.19
2018-11-10T11:31:31.539Z,15.23
2018-11-10T11:32:31.532Z,15.17
2018-11-10T11:33:31.512Z,15.13
2018-11-10T11:34:31.237Z,15.13
2018-11-10T11:35:31.410Z,15.15
2018-11-10T11:36:31.496Z,15.19
2018-11-10T11:37:31.457Z,15.19
2018-11-10T11:38:31.490Z,15.08
2018-11-10T11:39:30.899Z,15.12
2018-11-10T11:40:30.881Z,15.13
2018-11-10T11:41:31.502Z,15.17
2018-11-10T11:42:31.119Z,15.2
2018-11-10T11:43:31.109Z,15.03
2018-11-10T11:44:31.370Z,15.08
2018-11-10T11:45:31.336Z,15.11
2018-11-10T11:46:31.361Z,15.05
2018-11-10T11:47:31.361Z,15.06
2018-11-10T11:48:31.025Z,15.06
2018-11-10T11:49:31.018Z,15.06
2018-11-10T11:50:31.009Z,14.99
2018-11-10T11:51:30.727Z,15.06
2018-11-10T11:52:30.974Z,15.06
2018-11-10T11:53:31.237Z,14.99
2018-11-10T11:54:31.235Z,15.06
2018-11-10T11:55:31.194Z,15.09
2018-11-10T11:56:31.271Z,15.08
2018-11-10T11:57:31.111Z,15.09
2018-11-10T11:58:31.151Z,15.2
2018-11-10T11:59:31.142Z,15.27
2018-11-10T12:00:30.877Z,15.26
2018-11-10T12:01:31.110Z,15.33
2018-11-10T12:02:31.097Z,15.45
2018-11-10T12:03:31.141Z,15.43
2018-11-10T12:04:30.574Z,15.57
2018-11-10T12:05:30.542Z,15.51
2018-11-10T12:06:31.059Z,15.54
2018-11-10T12:07:31.036Z,15.51
2018-11-10T12:08:30.755Z,15.54
2018-11-10T12:09:30.740Z,15.49
2018-11-10T12:10:30.992Z,15.57
2018-11-10T12:11:30.989Z,15.66
2018-11-10T12:12:30.706Z,15.59
2018-11-10T12:13:30.966Z,15.52
2018-11-10T12:14:30.677Z,15.52
2018-11-10T12:15:31.390Z,15.56
2018-11-10T12:16:32.700Z,15.54
2018-11-10T12:17:30.639Z,15.51
2018-11-10T12:18:30.620Z,15.51
2018-11-10T12:19:30.336Z,15.54
2018-11-10T12:20:30.600Z,15.54
2018-11-10T12:21:30.845Z,15.51
2018-11-10T12:22:30.303Z,15.54
2018-11-10T12:23:30.549Z,15.48
2018-11-10T12:24:30.801Z,15.54
2018-11-10T12:25:30.526Z,15.46
2018-11-10T12:26:30.535Z,15.48
2018-11-10T12:27:30.701Z,15.46
2018-11-10T12:28:30.484Z,15.48
2018-11-10T12:29:30.467Z,15.42
2018-11-10T12:30:30.191Z,15.48
2018-11-10T12:31:30.215Z,15.57
2018-11-10T12:32:30.484Z,15.46
2018-11-10T12:33:30.675Z,15.45
2018-11-10T12:34:30.706Z,15.45
2018-11-10T12:35:30.383Z,15.46
2018-11-10T12:36:30.648Z,15.52
2018-11-10T12:37:30.405Z,15.39
2018-11-10T12:38:30.366Z,15.46
2018-11-10T12:39:30.340Z,15.39
2018-11-10T12:40:30.317Z,15.43
2018-11-10T12:41:30.569Z,15.46
2018-11-10T12:42:30.557Z,15.41
2018-11-10T12:43:30.028Z,15.41
2018-11-10T12:44:30.528Z,15.36
2018-11-10T12:45:30.243Z,15.45
2018-11-10T12:46:30.356Z,15.38
2018-11-10T12:47:30.313Z,15.43
2018-11-10T12:48:30.218Z,15.35
2018-11-10T12:49:30.194Z,15.31
2018-11-10T12:50:30.448Z,15.33
2018-11-10T12:51:30.163Z,15.27
2018-11-10T12:52:30.437Z,15.17
2018-11-10T12:53:30.144Z,15.3
2018-11-10T12:54:30.140Z,15.28
2018-11-10T12:55:30.320Z,15.26